createdAt,value
2022-11-27T00:00:48.149Z,-1.80
2022-11-27T00:03:14.995Z,-1.60
2022-11-27T00:05:50.843Z,-1.50
2022-11-27T00:08:17.696Z,-1.60
2022-11-27T00:10:44.808Z,-1.70
2022-11-27T00:13:11.614Z,-1.80
2022-11-27T00:15:38.543Z,-1.80
2022-11-27T00:18:05.370Z,-1.70
2022-11-27T00:20:32.541Z,-1.70
2022-11-27T00:22:59.300Z,-1.60
2022-11-27T00:25:26.134Z,-1.50
2022-11-27T00:27:52.912Z,-1.60
2022-11-27T00:30:19.832Z,-1.70
2022-11-27T00:32:46.630Z,-1.80
2022-11-27T00:35:13.518Z,-2.00
2022-11-27T00:37:40.324Z,-2.10
2022-11-27T00:40:07.738Z,-2.10
2022-11-27T00:42:34.467Z,-2.00
2022-11-27T00:45:01.676Z,-2.00
2022-11-27T00:47:28.475Z,-1.90
2022-11-27T00:49:55.292Z,-1.90
2022-11-27T00:52:22.198Z,-2.00
2022-11-27T00:54:48.986Z,-1.90
2022-11-27T00:57:15.690Z,-1.90
2022-11-27T00:59:42.425Z,-2.00
2022-11-27T01:02:09.434Z,-1.90
2022-11-27T01:04:36.275Z,-1.80
2022-11-27T01:07:03.154Z,-1.80
2022-11-27T01:09:29.979Z,-1.80
2022-11-27T01:11:56.840Z,-1.80
2022-11-27T01:14:23.630Z,-1.80
2022-11-27T01:16:50.548Z,-1.70
2022-11-27T01:19:17.370Z,-1.40
2022-11-27T01:21:44.249Z,-1.40
2022-11-27T01:24:13.566Z,-1.40
2022-11-27T01:26:40.673Z,-1.40
2022-11-27T01:29:07.689Z,-1.50
2022-11-27T01:31:35.406Z,-1.60
2022-11-27T01:34:05.292Z,-1.60
2022-11-27T01:36:33.407Z,-1.50
2022-11-27T01:39:01.120Z,-1.50
2022-11-27T01:41:37.047Z,-1.40
2022-11-27T01:44:25.917Z,-1.20
2022-11-27T01:47:15.224Z,-1.00
2022-11-27T01:49:50.547Z,-1.10
2022-11-27T01:52:22.107Z,-1.30
2022-11-27T01:54:56.680Z,-1.50
2022-11-27T01:57:31.005Z,-1.80
2022-11-27T02:00:00.612Z,-2.00
2022-11-27T02:02:27.607Z,-2.00
2022-11-27T02:04:58.001Z,-2.00
2022-11-27T02:07:25.111Z,-1.90
2022-11-27T02:09:51.988Z,-1.90
2022-11-27T02:12:56.910Z,-1.60
2022-11-27T02:15:31.212Z,-1.40
2022-11-27T02:18:10.004Z,-1.30
2022-11-27T02:21:04.579Z,-1.10
2022-11-27T02:23:49.321Z,-0.80
2022-11-27T02:26:37.452Z,-0.70
2022-11-27T02:29:10.309Z,-0.60
2022-11-27T02:32:01.538Z,-0.60
2022-11-27T02:34:39.529Z,-0.60
2022-11-27T02:37:15.839Z,-0.60
2022-11-27T02:40:09.408Z,-0.60
2022-11-27T02:42:40.624Z,-0.60
2022-11-27T02:45:14.329Z,-0.80
2022-11-27T02:47:43.973Z,-1.00
2022-11-27T02:50:15.269Z,-1.00
2022-11-27T02:52:43.450Z,-1.00
2022-11-27T02:55:16.168Z,-1.10
2022-11-27T02:57:45.040Z,-1.20
2022-11-27T03:00:12.942Z,-1.10
2022-11-27T03:02:46.458Z,-1.00
2022-11-27T03:05:19.034Z,-0.90
2022-11-27T03:08:47.520Z,-0.70
2022-11-27T03:11:15.517Z,-0.60
2022-11-27T03:13:47.316Z,-0.50
2022-11-27T03:16:42.759Z,-0.50
2022-11-27T03:19:26.956Z,-0.50
2022-11-27T03:21:57.490Z,-0.40
2022-11-27T03:24:25.263Z,-0.40
2022-11-27T03:26:52.648Z,-0.40
2022-11-27T03:29:24.776Z,-0.40
2022-11-27T03:31:52.066Z,-0.40
2022-11-27T03:34:19.112Z,-0.30
2022-11-27T03:36:46.425Z,-0.30
2022-11-27T03:39:13.830Z,-0.40
2022-11-27T03:42:00.009Z,-0.40
2022-11-27T03:44:53.701Z,-0.40
2022-11-27T03:47:39.525Z,-0.40
2022-11-27T03:50:34.504Z,-0.40
2022-11-27T03:53:33.380Z,-0.50
2022-11-27T03:56:20.493Z,-0.40
2022-11-27T03:59:10.302Z,-0.30
2022-11-27T04:01:37.611Z,-0.40
2022-11-27T04:04:04.878Z,-0.40
2022-11-27T04:06:31.689Z,-0.50
2022-11-27T04:08:58.578Z,-0.60
2022-11-27T04:11:25.599Z,-0.60
2022-11-27T04:13:52.458Z,-0.70
2022-11-27T04:16:19.939Z,-0.80
2022-11-27T04:18:46.784Z,-0.80
2022-11-27T04:21:13.579Z,-0.80
2022-11-27T04:23:40.846Z,-0.80
2022-11-27T04:26:07.672Z,-0.80
2022-11-27T04:28:34.609Z,-0.80
2022-11-27T04:31:01.633Z,-0.90
2022-11-27T04:33:28.484Z,-0.90
2022-11-27T04:35:55.377Z,-0.90
2022-11-27T04:38:23.685Z,-1.00
2022-11-27T04:40:53.477Z,-1.00
2022-11-27T04:43:20.421Z,-1.10
2022-11-27T04:45:47.337Z,-1.10
2022-11-27T04:48:14.175Z,-1.10
2022-11-27T04:50:40.959Z,-1.10
2022-11-27T04:53:07.783Z,-1.20
2022-11-27T04:55:35.364Z,-1.20
2022-11-27T04:58:02.214Z,-1.20
2022-11-27T05:00:29.073Z,-1.20
2022-11-27T05:02:56.104Z,-1.00
2022-11-27T05:05:23.018Z,-0.70
2022-11-27T05:07:49.957Z,-0.60
2022-11-27T05:10:16.927Z,-0.40
2022-11-27T05:12:43.931Z,-0.40
2022-11-27T05:15:10.876Z,-0.40
2022-11-27T05:17:37.704Z,-0.30
2022-11-27T05:20:04.990Z,-0.30
2022-11-27T05:22:32.196Z,-0.40
2022-11-27T05:24:59.022Z,-0.40
2022-11-27T05:27:25.925Z,-0.40
2022-11-27T05:29:52.962Z,-0.30
2022-11-27T05:32:19.858Z,-0.40
2022-11-27T05:34:48.646Z,-0.40
2022-11-27T05:37:19.508Z,-0.40
2022-11-27T05:39:47.008Z,-0.40
2022-11-27T05:42:14.067Z,-0.70
2022-11-27T05:44:41.022Z,-0.70
2022-11-27T05:47:08.135Z,-0.70
2022-11-27T05:49:35.423Z,-0.70
2022-11-27T05:52:02.358Z,-0.80
2022-11-27T05:54:29.167Z,-0.80
2022-11-27T05:56:55.948Z,-0.90
2022-11-27T05:59:22.735Z,-1.00
2022-11-27T06:01:50.144Z,-1.00
2022-11-27T06:06:44.726Z,-1.10
2022-11-27T06:09:13.506Z,-1.00
2022-11-27T06:11:41.002Z,-1.10
2022-11-27T06:14:09.419Z,-1.00
2022-11-27T06:16:37.391Z,-1.10
2022-11-27T06:19:04.427Z,-1.10
2022-11-27T06:21:31.329Z,-0.80
2022-11-27T06:23:58.095Z,-0.60
2022-11-27T06:26:28.594Z,-0.40
2022-11-27T06:28:56.907Z,-0.40
2022-11-27T06:31:26.574Z,-0.40
2022-11-27T06:33:54.897Z,-0.30
2022-11-27T06:36:28.294Z,-0.30
2022-11-27T06:38:55.278Z,-0.30
2022-11-27T06:41:24.650Z,-0.30
2022-11-27T06:43:51.781Z,-0.30
2022-11-27T06:46:20.682Z,-0.20
2022-11-27T06:48:49.078Z,-0.10
2022-11-27T06:51:27.567Z,-0.10
2022-11-27T06:53:54.718Z,-0.10
2022-11-27T06:56:24.712Z,-0.10
2022-11-27T06:58:53.666Z,-0.20
2022-11-27T07:01:21.332Z,-0.20
2022-11-27T07:03:48.439Z,-0.30
2022-11-27T07:06:18.464Z,-0.20
2022-11-27T07:08:45.530Z,-0.20
2022-11-27T07:11:14.836Z,-0.10
2022-11-27T07:13:42.050Z,-0.10
2022-11-27T07:16:10.937Z,-0.10
2022-11-27T07:18:41.367Z,0.00
2022-11-27T07:21:10.263Z,0.00
2022-11-27T07:23:38.254Z,0.00
2022-11-27T07:26:06.861Z,0.10
2022-11-27T07:28:33.711Z,0.10
2022-11-27T07:31:00.670Z,0.10
2022-11-27T07:33:27.956Z,0.10
2022-11-27T07:36:03.764Z,0.20
2022-11-27T07:38:30.804Z,0.20
2022-11-27T07:41:01.838Z,0.20
2022-11-27T07:43:29.594Z,0.60
2022-11-27T07:45:57.199Z,0.60
2022-11-27T07:48:24.436Z,0.50
2022-11-27T07:50:51.412Z,0.40
2022-11-27T07:53:18.973Z,0.40
2022-11-27T07:55:46.068Z,0.50
2022-11-27T07:58:12.899Z,0.50
2022-11-27T08:00:39.835Z,0.50
2022-11-27T08:03:07.125Z,0.60
2022-11-27T08:05:35.620Z,0.60
2022-11-27T08:08:04.393Z,0.60
2022-11-27T08:10:34.714Z,0.60
2022-11-27T08:13:01.560Z,0.70
2022-11-27T08:15:28.374Z,0.70
2022-11-27T08:17:55.221Z,0.70
2022-11-27T08:20:22.304Z,0.70
2022-11-27T08:22:49.461Z,0.80
2022-11-27T08:25:16.814Z,0.90
2022-11-27T08:27:44.162Z,1.00
2022-11-27T08:30:11.238Z,1.10
2022-11-27T08:32:42.841Z,1.30
2022-11-27T08:35:11.591Z,1.50
2022-11-27T08:37:38.657Z,1.60
2022-11-27T08:40:06.197Z,1.70
2022-11-27T08:42:33.054Z,1.80
2022-11-27T08:44:59.909Z,1.70
2022-11-27T08:47:26.668Z,1.60
2022-11-27T08:49:53.614Z,1.70
2022-11-27T08:52:21.270Z,1.60
2022-11-27T08:54:50.900Z,1.60
2022-11-27T08:57:21.760Z,1.60
2022-11-27T08:59:48.764Z,1.50
2022-11-27T09:02:15.548Z,1.50
2022-11-27T09:04:42.646Z,1.60
2022-11-27T09:07:12.429Z,1.60
2022-11-27T09:09:39.450Z,1.70
2022-11-27T09:12:06.501Z,1.80
2022-11-27T09:14:33.272Z,2.00
2022-11-27T09:17:00.168Z,2.50
2022-11-27T09:19:27.259Z,2.70
2022-11-27T09:21:54.147Z,2.90
2022-11-27T09:24:20.979Z,3.00
2022-11-27T09:26:47.901Z,2.80
2022-11-27T09:29:14.739Z,2.70
2022-11-27T09:31:41.607Z,2.60
2022-11-27T09:34:08.504Z,2.60
2022-11-27T09:36:35.593Z,2.50
2022-11-27T09:39:03.644Z,2.50
2022-11-27T09:41:51.165Z,2.40
2022-11-27T09:44:20.902Z,2.40
2022-11-27T09:46:49.434Z,2.50
2022-11-27T09:49:41.536Z,2.50
2022-11-27T09:52:39.940Z,2.40
2022-11-27T09:55:23.970Z,2.50
2022-11-27T09:58:01.576Z,2.40
2022-11-27T10:00:28.654Z,2.40
2022-11-27T10:02:55.654Z,2.60
2022-11-27T10:05:25.821Z,2.70
2022-11-27T10:08:14.145Z,2.70
2022-11-27T10:10:52.905Z,2.80
2022-11-27T10:13:39.048Z,3.20
2022-11-27T10:16:23.944Z,3.10
2022-11-27T10:19:03.286Z,3.50
2022-11-27T10:21:45.709Z,3.70
2022-11-27T10:24:12.430Z,3.80
2022-11-27T10:26:47.979Z,3.90
2022-11-27T10:29:14.826Z,4.20
2022-11-27T10:32:53.498Z,4.30
2022-11-27T10:35:21.847Z,4.30
2022-11-27T10:38:22.386Z,4.40
2022-11-27T10:40:57.804Z,4.10
2022-11-27T10:43:26.464Z,4.00
2022-11-27T10:45:56.138Z,4.00
2022-11-27T10:48:24.030Z,4.00
2022-11-27T10:50:51.416Z,3.90
2022-11-27T10:53:29.539Z,3.80
2022-11-27T10:56:02.274Z,3.80
2022-11-27T10:58:34.260Z,3.90
2022-11-27T11:01:16.864Z,3.90
2022-11-27T11:03:43.842Z,4.00
2022-11-27T11:06:24.402Z,3.80
2022-11-27T11:09:25.614Z,3.70
2022-11-27T11:11:52.710Z,3.60
2022-11-27T11:14:22.859Z,3.50
2022-11-27T11:16:50.978Z,3.50
2022-11-27T11:19:32.937Z,3.60
2022-11-27T11:22:04.336Z,3.80
2022-11-27T11:24:33.430Z,3.90
2022-11-27T11:27:05.941Z,3.80
2022-11-27T11:29:35.254Z,3.90
2022-11-27T11:32:07.851Z,3.80
2022-11-27T11:34:35.146Z,3.90
2022-11-27T11:37:08.742Z,3.80
2022-11-27T11:39:49.153Z,3.80
2022-11-27T11:42:25.993Z,3.70
2022-11-27T11:45:07.321Z,3.70
2022-11-27T11:47:34.415Z,3.80
2022-11-27T11:50:01.591Z,3.80
2022-11-27T11:52:37.459Z,3.70
2022-11-27T11:55:12.355Z,3.80
2022-11-27T11:58:26.352Z,3.90
2022-11-27T12:01:26.042Z,3.90
2022-11-27T12:03:57.654Z,4.00
2022-11-27T12:06:51.411Z,3.80
2022-11-27T12:09:35.790Z,4.00
2022-11-27T12:12:39.937Z,4.10
2022-11-27T12:15:27.969Z,4.10
2022-11-27T12:18:05.331Z,4.10
2022-11-27T12:20:48.989Z,4.00
2022-11-27T12:23:30.816Z,3.90
2022-11-27T12:26:24.524Z,3.90
2022-11-27T12:29:15.323Z,3.80
2022-11-27T12:31:52.430Z,3.70
2022-11-27T12:34:58.074Z,3.60
2022-11-27T12:37:52.388Z,3.50
2022-11-27T12:40:44.113Z,3.40
2022-11-27T12:43:27.727Z,3.40
2022-11-27T12:46:12.299Z,3.40
2022-11-27T12:48:53.729Z,3.40
2022-11-27T12:51:37.519Z,3.40
2022-11-27T12:54:14.274Z,3.40
2022-11-27T12:56:45.960Z,3.40
2022-11-27T12:59:35.057Z,3.40
2022-11-27T13:02:11.076Z,3.40
2022-11-27T13:04:54.125Z,3.50
2022-11-27T13:07:38.874Z,3.50
2022-11-27T13:10:20.457Z,3.60
2022-11-27T13:13:16.439Z,3.60
2022-11-27T13:15:54.790Z,3.50
2022-11-27T13:18:38.598Z,3.60
2022-11-27T13:21:12.988Z,3.50
2022-11-27T13:23:39.840Z,3.50
2022-11-27T13:26:15.226Z,3.50
2022-11-27T13:28:44.000Z,3.50
2022-11-27T13:31:22.851Z,3.40
2022-11-27T13:33:52.221Z,3.30
2022-11-27T13:36:36.027Z,3.30
2022-11-27T13:39:03.686Z,3.40
2022-11-27T13:41:40.894Z,3.30
2022-11-27T13:44:26.172Z,3.30
2022-11-27T13:46:56.298Z,3.30
2022-11-27T13:49:36.180Z,3.20
2022-11-27T13:52:16.497Z,3.30
2022-11-27T13:54:58.120Z,3.20
2022-11-27T13:57:26.452Z,3.20
2022-11-27T14:00:12.828Z,3.20
2022-11-27T14:02:45.524Z,3.20
2022-11-27T14:05:15.126Z,3.20
2022-11-27T14:07:45.543Z,3.20
2022-11-27T14:10:28.682Z,3.30
2022-11-27T14:13:04.921Z,3.30
2022-11-27T14:15:35.433Z,3.30
2022-11-27T14:18:08.554Z,3.30
2022-11-27T14:20:45.001Z,3.30
2022-11-27T14:23:13.614Z,3.30
2022-11-27T14:25:41.314Z,3.30
2022-11-27T14:28:22.044Z,3.30
2022-11-27T14:30:55.305Z,3.30
2022-11-27T14:33:59.769Z,3.30
2022-11-27T14:36:26.368Z,3.30
2022-11-27T14:38:53.912Z,3.30
2022-11-27T14:41:23.959Z,3.30
2022-11-27T14:44:04.469Z,3.30
2022-11-27T14:46:33.714Z,3.20
2022-11-27T14:49:00.728Z,3.20
2022-11-27T14:51:32.813Z,3.20
2022-11-27T14:54:11.202Z,3.10
2022-11-27T14:56:41.716Z,3.20
2022-11-27T14:59:20.747Z,3.10
2022-11-27T15:01:59.006Z,3.10
2022-11-27T15:04:29.351Z,3.10
2022-11-27T15:06:58.225Z,3.10
2022-11-27T15:09:43.394Z,3.10
2022-11-27T15:12:46.976Z,3.10
2022-11-27T15:15:28.492Z,3.10
2022-11-27T15:18:05.630Z,3.00
2022-11-27T15:20:42.353Z,3.00
2022-11-27T15:23:24.483Z,3.00
2022-11-27T15:26:16.871Z,2.90
2022-11-27T15:28:57.244Z,2.90
2022-11-27T15:31:32.918Z,2.90
2022-11-27T15:34:05.974Z,2.90
2022-11-27T15:36:39.352Z,2.90
2022-11-27T15:39:38.288Z,2.80
2022-11-27T15:42:09.664Z,2.80
2022-11-27T15:44:36.759Z,2.80
2022-11-27T15:47:05.330Z,2.80
2022-11-27T15:49:32.781Z,2.70
2022-11-27T15:51:59.737Z,2.70
2022-11-27T15:54:26.757Z,2.70
2022-11-27T15:56:54.040Z,2.70
2022-11-27T15:59:21.219Z,2.70
2022-11-27T16:01:49.890Z,2.70
2022-11-27T16:04:17.116Z,2.60
2022-11-27T16:06:44.112Z,2.60
2022-11-27T16:09:10.885Z,2.60
2022-11-27T16:11:38.137Z,2.60
2022-11-27T16:14:05.126Z,2.50
2022-11-27T16:16:32.407Z,2.50
2022-11-27T16:19:00.829Z,2.50
2022-11-27T16:21:29.894Z,2.50
2022-11-27T16:24:02.216Z,2.50
2022-11-27T16:26:29.552Z,2.40
2022-11-27T16:28:56.497Z,2.40
2022-11-27T16:31:23.612Z,2.40
2022-11-27T16:33:50.786Z,2.30
2022-11-27T16:36:21.408Z,2.30
2022-11-27T16:38:49.090Z,2.30
2022-11-27T16:41:19.156Z,2.30
2022-11-27T16:43:49.839Z,2.40
2022-11-27T16:46:20.225Z,2.40
2022-11-27T16:48:49.606Z,2.30
2022-11-27T16:51:20.432Z,2.30
2022-11-27T16:53:50.339Z,2.30
2022-11-27T16:56:23.835Z,2.30
2022-11-27T16:58:56.734Z,2.30
2022-11-27T17:01:32.360Z,2.20
2022-11-27T17:03:59.672Z,2.20
2022-11-27T17:06:29.058Z,2.20
2022-11-27T17:08:57.672Z,2.20
2022-11-27T17:11:26.825Z,2.30
2022-11-27T17:13:57.523Z,2.20
2022-11-27T17:16:24.904Z,2.20
2022-11-27T17:18:52.941Z,2.20
2022-11-27T17:21:31.991Z,2.30
2022-11-27T17:24:01.744Z,2.30
2022-11-27T17:26:35.205Z,2.30
2022-11-27T17:29:03.465Z,2.20
2022-11-27T17:31:37.032Z,2.20
2022-11-27T17:34:06.501Z,2.20
2022-11-27T17:36:37.124Z,2.30
2022-11-27T17:39:06.470Z,2.30
2022-11-27T17:41:33.851Z,2.30
2022-11-27T17:44:02.807Z,2.30
2022-11-27T17:46:30.448Z,2.30
2022-11-27T17:49:01.499Z,2.40
2022-11-27T17:51:31.302Z,2.30
2022-11-27T17:54:01.365Z,2.30
2022-11-27T17:56:32.285Z,2.30
2022-11-27T17:58:59.945Z,2.30
2022-11-27T18:01:29.237Z,2.30
2022-11-27T18:03:59.853Z,2.30
2022-11-27T18:06:29.220Z,2.30
2022-11-27T18:08:58.144Z,2.30
2022-11-27T18:11:28.206Z,2.30
2022-11-27T18:13:58.213Z,2.30
2022-11-27T18:16:31.650Z,2.30
2022-11-27T18:18:59.679Z,2.30
2022-11-27T18:21:28.482Z,2.30
2022-11-27T18:29:30.363Z,2.20
2022-11-27T18:31:57.225Z,2.20
2022-11-27T18:34:24.068Z,2.20
2022-11-27T18:36:50.884Z,2.20
2022-11-27T18:39:17.744Z,2.20
2022-11-27T18:41:44.606Z,2.20
2022-11-27T18:44:11.957Z,2.30
2022-11-27T18:46:39.842Z,2.30
2022-11-27T18:49:07.728Z,2.30
2022-11-27T18:51:34.721Z,2.40
2022-11-27T18:54:02.192Z,2.40
2022-11-27T18:56:31.360Z,2.40
2022-11-27T18:59:04.687Z,2.50
2022-11-27T19:01:41.282Z,2.60
2022-11-27T19:04:09.380Z,2.60
2022-11-27T19:06:37.588Z,2.60
2022-11-27T19:09:06.340Z,2.70
2022-11-27T19:11:34.822Z,2.70
2022-11-27T19:14:04.419Z,2.70
2022-11-27T19:16:44.165Z,2.60
2022-11-27T19:19:52.236Z,2.70
2022-11-27T19:22:00.955Z,2.70
2022-11-27T19:24:27.801Z,2.80
2022-11-27T19:26:55.126Z,2.80
2022-11-27T19:29:22.848Z,2.80
2022-11-27T19:31:50.043Z,2.80
2022-11-27T19:34:16.921Z,2.80
2022-11-27T19:36:44.675Z,2.80
2022-11-27T19:39:14.377Z,2.80
2022-11-27T19:41:43.222Z,2.80
2022-11-27T19:44:12.295Z,2.80
2022-11-27T19:46:40.333Z,2.80
2022-11-27T19:49:14.669Z,2.80
2022-11-27T19:51:41.977Z,2.80
2022-11-27T19:54:13.107Z,2.80
2022-11-27T19:56:42.414Z,2.80
2022-11-27T19:59:10.497Z,2.90
2022-11-27T20:01:40.263Z,2.90
2022-11-27T20:04:09.737Z,2.90
2022-11-27T20:06:36.689Z,2.90
2022-11-27T20:09:05.208Z,2.90
2022-11-27T20:11:35.191Z,2.90
2022-11-27T20:14:05.130Z,3.00
2022-11-27T20:16:34.003Z,3.00
2022-11-27T20:19:02.394Z,3.00
2022-11-27T20:21:29.278Z,3.00
2022-11-27T20:23:57.608Z,3.00
2022-11-27T20:26:27.230Z,3.00
2022-11-27T20:28:54.977Z,3.00
2022-11-27T20:31:24.934Z,3.00
2022-11-27T20:33:55.346Z,3.00
2022-11-27T20:36:23.699Z,3.00
2022-11-27T20:38:52.328Z,3.00
2022-11-27T20:41:20.766Z,3.00
2022-11-27T20:43:53.193Z,3.00
2022-11-27T20:46:20.261Z,3.00
2022-11-27T20:48:49.127Z,3.00
2022-11-27T20:51:19.351Z,3.00
2022-11-27T20:53:47.981Z,3.00
2022-11-27T20:56:17.811Z,3.00
2022-11-27T20:58:46.365Z,3.10
2022-11-27T21:01:21.543Z,3.10
2022-11-27T21:03:50.230Z,3.10
2022-11-27T21:06:23.933Z,3.20
2022-11-27T21:08:51.108Z,3.20
2022-11-27T21:11:27.049Z,3.30
2022-11-27T21:13:56.522Z,3.60
2022-11-27T21:16:25.463Z,3.40
2022-11-27T21:18:53.830Z,3.40
2022-11-27T21:21:21.393Z,3.50
2022-11-27T21:23:49.099Z,3.50
2022-11-27T21:26:18.546Z,3.40
2022-11-27T21:28:46.663Z,3.40
2022-11-27T21:31:19.297Z,3.40
2022-11-27T21:34:06.120Z,3.30
2022-11-27T21:36:36.024Z,3.30
2022-11-27T21:39:08.120Z,3.30
2022-11-27T21:41:36.003Z,3.30
2022-11-27T21:44:05.497Z,3.30
2022-11-27T21:46:33.618Z,3.20
2022-11-27T21:49:04.318Z,3.30
2022-11-27T21:51:31.189Z,3.20
2022-11-27T21:53:59.075Z,3.20
2022-11-27T21:56:29.046Z,3.20
2022-11-27T21:58:56.302Z,3.20
2022-11-27T22:01:25.110Z,3.20
2022-11-27T22:03:56.591Z,3.20
2022-11-27T22:06:26.931Z,3.20
2022-11-27T22:08:56.705Z,3.20
2022-11-27T22:11:30.764Z,3.10
2022-11-27T22:14:07.041Z,3.20
2022-11-27T22:16:42.799Z,3.30
2022-11-27T22:19:11.492Z,3.30
2022-11-27T22:21:38.495Z,3.30
2022-11-27T22:24:05.469Z,3.40
2022-11-27T22:26:32.559Z,3.50
2022-11-27T22:28:59.653Z,3.50
2022-11-27T22:31:33.852Z,3.50
2022-11-27T22:34:00.856Z,3.60
2022-11-27T22:36:31.226Z,3.50
2022-11-27T22:39:00.870Z,3.60
2022-11-27T22:41:29.929Z,3.60
2022-11-27T22:44:00.232Z,3.50
2022-11-27T22:46:32.597Z,3.50
2022-11-27T22:49:01.007Z,3.50
2022-11-27T22:51:29.930Z,3.50
2022-11-27T22:53:58.000Z,3.50
2022-11-27T22:56:25.899Z,3.50
2022-11-27T22:59:11.313Z,3.40
2022-11-27T23:01:40.893Z,3.40
2022-11-27T23:04:07.854Z,3.40
2022-11-27T23:06:34.745Z,3.50
2022-11-27T23:09:01.714Z,3.40
2022-11-27T23:11:29.068Z,3.50
2022-11-27T23:13:57.673Z,3.50
2022-11-27T23:16:25.160Z,3.60
2022-11-27T23:18:51.989Z,3.60
2022-11-27T23:21:22.194Z,3.50
2022-11-27T23:23:49.413Z,3.50
2022-11-27T23:26:18.820Z,3.40
2022-11-27T23:28:47.731Z,3.40
2022-11-27T23:31:33.178Z,3.30
2022-11-27T23:34:01.892Z,3.30
2022-11-27T23:36:30.549Z,3.30
2022-11-27T23:39:00.656Z,3.30
2022-11-27T23:41:27.810Z,3.30
2022-11-27T23:43:55.172Z,3.40
2022-11-27T23:46:26.349Z,3.40
2022-11-27T23:48:58.394Z,3.40
2022-11-27T23:51:29.354Z,3.50
2022-11-27T23:53:56.584Z,3.40
2022-11-27T23:56:25.887Z,3.50
2022-11-27T23:58:55.185Z,3.50
